Time;durP1;ratioP1;P1;durP2;ratioP2;P2;SDS_P1;SDS_P2;PMS_P1;PMS_P2;Temp;Humidity;BMP_temperature;BMP_pressure;BME280_temperature;BME280_humidity;BME280_pressure;Samples;Min_cycle;Max_cycle;Signal;HPM_P1;HPM_P2
2021/05/12 00:00:27;;;;;;;6.10;2.20;;;;;;;19.98;59.45;101006.44;5052913;28;20108;-66
2021/05/12 00:02:54;;;;;;;6.82;2.17;;;;;;;19.97;59.69;101007.44;5052694;28;20028;-66
2021/05/12 00:05:21;;;;;;;6.38;2.55;;;;;;;19.95;59.50;101010.22;5052906;28;20025;-66
2021/05/12 00:07:47;;;;;;;7.03;2.40;;;;;;;19.96;59.47;101011.88;5053676;28;20102;-65
2021/05/12 00:10:13;;;;;;;6.60;2.40;;;;;;;19.91;59.46;100999.03;5052112;28;20464;-64
2021/05/12 00:12:40;;;;;;;6.25;2.13;;;;;;;19.94;59.56;101006.72;5053146;28;20531;-66
2021/05/12 00:15:09;;;;;;;7.72;2.38;;;;;;;19.93;59.07;101010.34;5053057;28;20087;-65
2021/05/12 00:17:38;;;;;;;6.63;2.78;;;;;;;19.94;59.67;101019.09;5051572;28;20035;-64
2021/05/12 00:20:05;;;;;;;6.18;2.05;;;;;;;19.92;59.31;101021.88;5052807;28;20028;-66
2021/05/12 00:23:15;;;;;;;5.30;2.20;;;;;;;19.91;59.58;101014.91;5052573;28;20452;-66
2021/05/12 00:25:19;;;;;;;5.90;2.30;;;;;;;19.91;59.25;101022.84;5048848;28;20503;-65
2021/05/12 00:27:45;;;;;;;6.38;2.25;;;;;;;19.89;59.25;101010.75;5052707;28;20021;-66
2021/05/12 00:30:16;;;;;;;6.28;2.15;;;;;;;19.89;59.27;101014.22;5052439;28;20385;-67
2021/05/12 00:32:45;;;;;;;6.55;2.22;;;;;;;19.90;59.38;101025.63;5052104;28;20036;-66
2021/05/12 00:35:13;;;;;;;7.13;2.40;;;;;;;19.89;59.46;101029.25;5052506;28;20460;-67
2021/05/12 00:37:40;;;;;;;5.85;2.08;;;;;;;19.88;59.41;101022.28;5052650;28;20047;-66
2021/05/12 00:40:07;;;;;;;4.70;2.00;;;;;;;19.89;59.29;101026.59;5051808;28;20036;-66
2021/05/12 00:42:33;;;;;;;5.32;1.92;;;;;;;19.87;59.34;101017.97;5052167;28;20032;-66
2021/05/12 00:45:11;;;;;;;6.00;2.30;;;;;;;19.89;59.42;101026.59;5052417;28;20503;-66
2021/05/12 00:47:36;;;;;;;5.18;2.25;;;;;;;19.87;59.36;101023.28;5052173;28;20048;-66
2021/05/12 00:50:04;;;;;;;5.07;2.00;;;;;;;19.86;59.57;101025.06;5052516;28;20472;-66
2021/05/12 00:52:29;;;;;;;7.63;2.40;;;;;;;19.83;59.21;101022.66;5051008;28;20025;-66
2021/05/12 00:54:54;;;;;;;8.10;2.30;;;;;;;19.86;59.41;101029.50;5052303;28;20107;-66
2021/05/12 00:57:21;;;;;;;6.53;2.13;;;;;;;19.85;59.09;101028.69;5051904;28;20469;-66
2021/05/12 00:59:48;;;;;;;5.25;2.20;;;;;;;19.85;59.02;101028.69;5051489;28;20021;-65
2021/05/12 01:02:15;;;;;;;6.28;2.00;;;;;;;19.84;59.45;101023.53;5051975;28;20115;-65
2021/05/12 01:04:40;;;;;;;6.43;2.35;;;;;;;19.83;59.10;101029.78;5052347;28;20029;-67
2021/05/12 01:07:06;;;;;;;6.93;2.38;;;;;;;19.84;59.30;101036.75;5051217;28;20028;-65
2021/05/12 01:09:32;;;;;;;6.75;2.50;;;;;;;19.83;58.91;101027.13;5051920;28;20127;-66
2021/05/12 01:12:00;;;;;;;4.18;2.25;;;;;;;19.82;59.15;101028.94;5051926;28;20036;-65
2021/05/12 01:14:27;;;;;;;5.72;2.40;;;;;;;19.83;59.11;101032.41;5051094;28;20087;-66
2021/05/12 01:16:52;;;;;;;5.18;1.95;;;;;;;19.79;59.33;101026.56;5052205;28;20056;-66
2021/05/12 01:19:18;;;;;;;6.57;2.75;;;;;;;19.81;59.33;101026.44;5051839;28;20040;-65
2021/05/12 01:21:43;;;;;;;6.82;2.20;;;;;;;19.80;59.10;101020.28;5050224;28;20032;-65
2021/05/12 01:24:10;;;;;;;6.43;2.40;;;;;;;19.80;58.89;101036.16;5051692;28;20408;-65
2021/05/12 01:26:37;;;;;;;6.43;2.40;;;;;;;19.80;59.01;101030.88;5051291;28;20444;-67
2021/05/12 01:29:04;;;;;;;5.75;2.17;;;;;;;19.81;58.98;101037.00;5051159;28;20033;-67
2021/05/12 01:31:31;;;;;;;7.35;2.45;;;;;;;19.79;59.14;101039.78;5051011;28;20083;-66
2021/05/12 01:33:57;;;;;;;7.25;2.20;;;;;;;19.79;58.88;101037.16;5051514;28;20056;-66
2021/05/12 01:36:23;;;;;;;6.10;2.42;;;;;;;19.77;58.94;101038.22;5050320;28;20433;-66
2021/05/12 01:38:49;;;;;;;5.75;2.45;;;;;;;19.77;59.26;101036.41;5051476;28;20104;-66
2021/05/12 01:41:19;;;;;;;7.43;2.40;;;;;;;19.73;59.28;101033.16;5050882;28;20074;-65
2021/05/12 01:43:44;;;;;;;8.18;3.15;;;;;;;19.76;59.21;101042.69;5051462;28;20036;-66
2021/05/12 01:46:11;;;;;;;6.22;2.15;;;;;;;19.74;58.76;101034.84;5051380;28;20018;-66
2021/05/12 01:48:40;;;;;;;5.47;2.13;;;;;;;19.73;59.15;101027.88;5050238;28;20465;-66
2021/05/12 01:51:09;;;;;;;5.45;2.10;;;;;;;19.74;58.92;101034.00;5051110;28;20041;-65
2021/05/12 01:53:35;;;;;;;6.90;2.10;;;;;;;19.74;58.93;101032.22;5050775;28;20017;-66
2021/05/12 01:56:01;;;;;;;6.13;2.33;;;;;;;19.73;59.05;101029.69;5050047;28;20484;-67
2021/05/12 01:58:27;;;;;;;4.57;2.33;;;;;;;19.74;58.88;101034.00;5051176;28;20029;-66
2021/05/12 02:00:54;;;;;;;5.78;2.20;;;;;;;19.74;59.10;101026.06;5051049;28;20028;-66
2021/05/12 02:03:20;;;;;;;5.97;1.98;;;;;;;19.69;59.12;101021.19;5050131;28;20025;-66
2021/05/12 02:06:23;;;;;;;6.15;2.50;;;;;;;19.73;58.95;101034.97;5051004;28;20032;-66
2021/05/12 02:08:48;;;;;;;7.22;2.38;;;;;;;19.72;59.12;101023.56;5050797;28;20067;-66
2021/05/12 02:11:16;;;;;;;6.07;2.20;;;;;;;19.71;58.94;101023.69;5048653;28;20025;-65
2021/05/12 02:13:42;;;;;;;6.45;2.13;;;;;;;19.71;59.09;101016.59;5051493;28;20107;-66
2021/05/12 02:16:07;;;;;;;6.37;2.13;;;;;;;19.69;59.00;101026.47;5051476;28;20449;-66
2021/05/12 02:18:33;;;;;;;5.95;2.15;;;;;;;19.70;58.77;101022.03;5050234;28;20441;-66
2021/05/12 02:20:59;;;;;;;6.68;2.15;;;;;;;19.69;58.87;101022.97;5051342;28;20448;-66
2021/05/12 02:23:25;;;;;;;5.60;2.20;;;;;;;19.69;59.04;101030.91;5051386;28;20025;-65
2021/05/12 02:25:51;;;;;;;5.72;1.92;;;;;;;19.67;58.87;101017.81;5050652;28;20088;-66
2021/05/12 02:28:19;;;;;;;5.97;2.53;;;;;;;19.67;58.90;101019.63;5050952;28;20108;-66
2021/05/12 02:30:45;;;;;;;8.23;2.47;;;;;;;19.68;58.64;101023.97;5050574;28;20064;-66
2021/05/12 02:33:11;;;;;;;6.72;2.17;;;;;;;19.68;58.88;101029.25;5052510;28;20029;-66
2021/05/12 02:35:38;;;;;;;5.60;1.88;;;;;;;19.67;58.85;101024.94;5054606;28;20040;-66
2021/05/12 02:38:03;;;;;;;7.32;2.38;;;;;;;19.66;58.74;101029.38;5054221;28;20032;-66
2021/05/12 02:40:29;;;;;;;5.50;2.00;;;;;;;19.63;58.76;101019.06;5054797;28;20028;-66
2021/05/12 02:42:57;;;;;;;5.60;1.90;;;;;;;19.67;58.79;101027.56;5054854;28;20078;-65
2021/05/12 02:45:22;;;;;;;5.47;1.90;;;;;;;19.64;58.78;101015.44;5053775;28;20017;-65
2021/05/12 02:47:58;;;;;;;6.20;1.80;;;;;;;19.65;58.81;101024.22;5054963;28;20032;-65
2021/05/12 02:50:38;;;;;;;7.90;2.33;;;;;;;19.63;58.50;101021.72;5054743;28;20098;-65
2021/05/12 02:53:06;;;;;;;5.18;2.10;;;;;;;19.62;58.56;101017.38;5053925;28;20025;-66
2021/05/12 02:55:35;;;;;;;6.47;2.03;;;;;;;19.62;58.79;101017.38;5054299;28;20045;-65
2021/05/12 02:58:00;;;;;;;5.35;1.90;;;;;;;19.62;58.36;101020.03;5054540;28;20413;-66
2021/05/12 03:00:28;;;;;;;6.85;2.00;;;;;;;19.61;58.64;101020.97;5053580;28;20036;-67
2021/05/12 03:02:54;;;;;;;5.53;1.90;;;;;;;19.62;58.71;101029.78;5054864;28;20025;-66
2021/05/12 03:05:19;;;;;;;4.93;1.80;;;;;;;19.58;58.75;101022.09;5054316;28;20177;-66
2021/05/12 03:07:45;;;;;;;8.25;2.08;;;;;;;19.58;58.57;101032.69;5053633;28;20032;-66
2021/05/12 03:10:13;;;;;;;6.78;1.80;;;;;;;19.58;58.78;101029.16;5054440;28;20029;-66
2021/05/12 03:12:39;;;;;;;6.05;1.90;;;;;;;19.60;58.39;101036.97;5054250;28;20032;-66
2021/05/12 03:15:10;;;;;;;6.43;2.00;;;;;;;19.59;58.48;101036.16;5053406;28;20021;-65
2021/05/12 03:17:36;;;;;;;6.57;1.92;;;;;;;19.58;58.38;101035.31;5054057;28;20135;-65
2021/05/12 03:20:05;;;;;;;6.82;2.03;;;;;;;19.57;58.29;101036.28;5053559;28;20037;-67
2021/05/12 03:22:31;;;;;;;6.93;2.20;;;;;;;19.57;58.55;101031.00;5053810;28;20071;-66
2021/05/12 03:24:56;;;;;;;6.90;2.38;;;;;;;19.57;58.26;101033.63;5054201;28;20017;-66
2021/05/12 03:27:21;;;;;;;6.53;1.80;;;;;;;19.56;58.49;101039.03;5053163;28;20033;-65
2021/05/12 03:29:47;;;;;;;5.93;2.17;;;;;;;19.56;58.22;101042.53;5054055;28;20410;-65
2021/05/12 03:32:24;;;;;;;6.57;2.00;;;;;;;19.55;58.35;101038.22;5053545;28;20035;-66
2021/05/12 03:34:49;;;;;;;4.50;1.70;;;;;;;19.56;58.26;101047.81;5053225;28;20025;-66
2021/05/12 03:37:15;;;;;;;7.57;1.80;;;;;;;19.56;58.56;101041.69;5053467;28;20453;-66
2021/05/12 03:39:40;;;;;;;8.48;2.35;;;;;;;19.55;58.22;101040.88;5053549;28;20025;-66
2021/05/12 03:42:05;;;;;;;5.07;2.00;;;;;;;19.55;58.41;101038.22;5052828;28;20021;-67
2021/05/12 03:44:31;;;;;;;5.80;1.77;;;;;;;19.54;58.67;101041.81;5052251;28;20080;-66
2021/05/12 03:46:56;;;;;;;5.82;1.70;;;;;;;19.53;58.52;101042.78;5053379;28;20029;-67
2021/05/12 03:49:21;;;;;;;4.82;1.77;;;;;;;19.54;58.38;101041.00;5052571;28;20021;-67
2021/05/12 03:51:47;;;;;;;5.53;1.70;;;;;;;19.52;58.24;101043.75;5053427;28;20029;-65
2021/05/12 03:54:12;;;;;;;4.43;1.90;;;;;;;19.53;58.22;101042.78;5053167;28;20021;-66
2021/05/12 03:56:37;;;;;;;5.85;1.95;;;;;;;19.51;58.32;101047.34;5052240;28;20053;-66
2021/05/12 03:59:05;;;;;;;6.03;2.25;;;;;;;19.53;58.48;101052.53;5053416;28;20043;-65
2021/05/12 04:01:31;;;;;;;6.75;2.03;;;;;;;19.52;58.58;101053.50;5053089;28;20365;-66
2021/05/12 04:03:56;;;;;;;6.05;2.08;;;;;;;19.51;58.33;101042.06;5052602;28;20027;-66
2021/05/12 04:06:24;;;;;;;4.53;1.92;;;;;;;19.52;58.67;101048.22;5052753;28;20044;-65
2021/05/12 04:08:50;;;;;;;6.47;1.90;;;;;;;19.51;57.84;101057.09;5053040;28;20028;-66
2021/05/12 04:11:15;;;;;;;6.13;1.95;;;;;;;19.50;58.46;101055.41;5051770;28;20036;-65
2021/05/12 04:13:40;;;;;;;6.13;1.83;;;;;;;19.50;58.58;101058.06;5052757;28;20033;-65
2021/05/12 04:16:08;;;;;;;5.55;1.98;;;;;;;19.48;58.39;101055.53;5052324;28;20029;-66
2021/05/12 04:18:34;;;;;;;5.63;1.88;;;;;;;19.50;58.13;101063.34;5052410;28;20469;-66
2021/05/12 04:20:59;;;;;;;6.72;2.13;;;;;;;19.49;58.50;101064.34;5053061;28;20037;-66
2021/05/12 04:23:27;;;;;;;6.68;2.17;;;;;;;19.49;58.10;101061.69;5051688;28;20130;-66
2021/05/12 04:25:53;;;;;;;4.40;2.00;;;;;;;19.46;57.90;101076.00;5052700;28;20055;-66
2021/05/12 04:28:18;;;;;;;6.57;2.00;;;;;;;19.47;58.41;101067.09;5052676;28;20021;-66
2021/05/12 04:30:43;;;;;;;6.30;2.22;;;;;;;19.46;57.92;101072.53;5051806;28;20479;-66
2021/05/12 04:33:09;;;;;;;7.47;2.40;;;;;;;19.47;57.99;101068.88;5053939;28;20048;-66
2021/05/12 04:35:34;;;;;;;5.38;1.70;;;;;;;19.46;57.93;101068.06;5054561;28;20380;-66
2021/05/12 04:37:59;;;;;;;7.95;2.15;;;;;;;19.46;58.23;101077.81;5053016;28;20021;-66
2021/05/12 04:40:25;;;;;;;4.10;1.83;;;;;;;19.45;58.08;101084.03;5053465;28;20033;-66
2021/05/12 04:42:51;;;;;;;4.72;1.80;;;;;;;19.45;58.12;101084.88;5054111;28;20048;-67
2021/05/12 04:45:19;;;;;;;5.00;1.85;;;;;;;19.44;58.12;101077.06;5052614;28;20025;-66
2021/05/12 04:47:54;;;;;;;6.05;1.90;;;;;;;19.43;57.94;101084.16;5053874;28;20105;-66
2021/05/12 04:50:25;;;;;;;6.68;2.30;;;;;;;19.44;57.87;101087.66;5053307;28;20028;-66
2021/05/12 04:52:53;;;;;;;4.65;1.75;;;;;;;19.41;57.82;101072.91;5052021;28;20029;-66
2021/05/12 04:55:19;;;;;;;6.57;2.22;;;;;;;19.43;57.90;101086.81;5051813;28;20064;-66
2021/05/12 04:57:44;;;;;;;5.00;1.85;;;;;;;19.43;57.79;101086.00;5053170;28;20029;-65
2021/05/12 05:00:14;;;;;;;5.90;2.08;;;;;;;19.42;57.88;101086.94;5051538;28;20052;-66
2021/05/12 05:02:41;;;;;;;5.35;1.80;;;;;;;19.42;57.81;101085.13;5052053;28;20100;-65
2021/05/12 05:05:09;;;;;;;6.63;3.08;;;;;;;19.42;58.10;101087.78;5054014;28;20025;-67
2021/05/12 05:07:35;;;;;;;5.95;2.10;;;;;;;19.43;57.93;101091.28;5051086;28;20029;-66
2021/05/12 05:10:04;;;;;;;6.30;2.13;;;;;;;19.40;57.67;101092.34;5051746;28;20021;-66
2021/05/12 05:12:29;;;;;;;4.72;1.75;;;;;;;19.42;57.87;101095.69;5050720;28;20028;-66
2021/05/12 05:14:55;;;;;;;5.15;1.90;;;;;;;19.43;57.60;101096.56;5052205;28;20029;-66
2021/05/12 05:17:23;;;;;;;6.90;2.30;;;;;;;19.42;57.69;101100.16;5051437;28;20536;-64
2021/05/12 05:19:48;;;;;;;5.93;2.60;;;;;;;19.41;57.94;101099.34;5050913;28;20473;-63
2021/05/12 05:22:16;;;;;;;6.13;2.10;;;;;;;19.43;57.87;101101.84;5051441;28;20029;-64
2021/05/12 05:24:42;;;;;;;6.93;2.22;;;;;;;19.43;57.48;101101.84;5051692;28;20025;-66
2021/05/12 05:27:07;;;;;;;7.38;1.90;;;;;;;19.44;57.54;101108.78;5050928;28;20021;-67
2021/05/12 05:29:36;;;;;;;5.72;2.40;;;;;;;19.41;57.21;101109.91;5051322;28;20090;-65
2021/05/12 05:32:01;;;;;;;5.97;1.85;;;;;;;19.39;57.36;101114.44;5051738;28;20115;-65
2021/05/12 05:34:27;;;;;;;4.82;2.00;;;;;;;19.39;57.65;101103.88;5050492;28;20061;-78
2021/05/12 05:36:52;;;;;;;5.75;2.55;;;;;;;19.39;57.42;101111.81;5051572;28;20025;-63
2021/05/12 05:39:17;;;;;;;6.85;2.30;;;;;;;19.42;57.88;101110.72;5051176;28;20040;-64
2021/05/12 05:41:42;;;;;;;6.30;1.95;;;;;;;19.42;57.86;101108.09;5050776;28;20025;-64
2021/05/12 05:44:10;;;;;;;5.60;2.25;;;;;;;19.45;57.42;101115.75;5051404;28;20476;-65
2021/05/12 05:46:36;;;;;;;4.70;2.10;;;;;;;19.45;57.68;101115.75;5051104;28;20021;-65
2021/05/12 05:49:02;;;;;;;5.03;1.98;;;;;;;19.46;57.54;101120.09;5050520;28;20383;-64
2021/05/12 05:51:27;;;;;;;5.00;2.15;;;;;;;19.47;57.34;101114.69;5051063;28;20056;-64
2021/05/12 05:53:52;;;;;;;5.57;1.98;;;;;;;19.49;57.53;101111.91;5051315;28;20491;-65
2021/05/12 05:56:18;;;;;;;5.20;2.22;;;;;;;19.51;57.48;101112.63;5049949;28;20053;-64
2021/05/12 05:58:43;;;;;;;5.25;2.42;;;;;;;19.53;57.51;101108.03;5051270;28;20476;-65
2021/05/12 06:01:08;;;;;;;5.70;2.10;;;;;;;19.54;57.73;101109.72;5051216;28;20028;-65
2021/05/12 06:03:33;;;;;;;5.65;2.30;;;;;;;19.55;57.49;101109.59;5049947;28;20266;-64
2021/05/12 06:06:00;;;;;;;5.53;1.95;;;;;;;19.56;57.38;101108.59;5051166;28;20025;-65
2021/05/12 06:08:25;;;;;;;5.88;2.10;;;;;;;19.57;57.55;101112.94;5052594;28;20040;-66
2021/05/12 06:10:51;;;;;;;6.60;2.40;;;;;;;19.60;57.76;101109.22;5054252;28;20028;-65
2021/05/12 06:13:16;;;;;;;7.18;2.30;;;;;;;19.62;57.94;101114.38;5054682;28;20086;-64
2021/05/12 06:15:42;;;;;;;7.07;2.60;;;;;;;19.63;57.92;101108.09;5054252;28;20025;-64
2021/05/12 06:18:10;;;;;;;7.50;2.47;;;;;;;19.63;57.85;101108.97;5054939;28;20029;-66
2021/05/12 06:20:36;;;;;;;6.15;2.30;;;;;;;19.62;57.76;101103.81;5054510;28;20115;-65
2021/05/12 06:23:07;;;;;;;4.38;2.28;;;;;;;19.64;57.84;101107.97;5054364;28;20159;-65
2021/05/12 06:25:33;;;;;;;6.20;2.20;;;;;;;19.63;57.67;101100.16;5054293;28;20032;-66
2021/05/12 06:28:01;;;;;;;7.85;2.50;;;;;;;19.65;57.92;101103.53;5054966;28;20025;-66
2021/05/12 06:30:26;;;;;;;6.57;2.50;;;;;;;19.65;57.72;101101.72;5053540;28;20449;-64
2021/05/12 06:32:54;;;;;;;6.97;2.05;;;;;;;19.66;57.36;101105.19;5054736;28;20035;-64
2021/05/12 06:35:19;;;;;;;5.38;2.08;;;;;;;19.64;57.55;101102.69;5054582;28;20029;-65
2021/05/12 06:37:46;;;;;;;7.30;2.90;;;;;;;19.66;57.82;101105.19;5054050;28;20033;-65
2021/05/12 06:40:13;;;;;;;5.43;1.88;;;;;;;19.65;57.99;101109.66;5053353;28;20031;-66
2021/05/12 06:42:38;;;;;;;7.88;2.35;;;;;;;19.68;57.67;101112.06;5054588;28;20028;-68
2021/05/12 06:45:04;;;;;;;6.93;2.15;;;;;;;19.68;57.84;101109.41;5053718;28;20111;-67
2021/05/12 06:47:29;;;;;;;6.63;2.13;;;;;;;19.68;57.70;101108.56;5054110;28;20171;-66
2021/05/12 06:49:55;;;;;;;4.28;1.77;;;;;;;19.68;57.36;101112.06;5054903;28;20159;-66
2021/05/12 06:52:39;;;;;;;4.93;1.90;;;;;;;19.68;57.61;101113.88;5063303;28;20047;-67
2021/05/12 06:55:13;;;;;;;4.85;1.80;;;;;;;19.67;57.79;101101.59;5072219;28;20063;-67
2021/05/12 06:57:39;;;;;;;6.22;2.40;;;;;;;19.73;57.58;101111.66;5055780;28;20043;-66
2021/05/12 07:00:08;;;;;;;6.82;2.20;;;;;;;19.74;57.44;101106.25;5054617;28;20116;-67
2021/05/12 07:02:33;;;;;;;7.28;2.22;;;;;;;19.73;57.70;101106.38;5054534;28;20443;-66
2021/05/12 07:04:58;;;;;;;4.97;2.00;;;;;;;19.77;57.68;101110.47;5053996;28;20025;-66
2021/05/12 07:07:27;;;;;;;4.97;2.42;;;;;;;19.75;57.50;101113.19;5054177;28;20449;-66
2021/05/12 07:09:52;;;;;;;5.55;2.03;;;;;;;19.77;57.70;101109.63;5054635;28;20035;-66
2021/05/12 07:12:18;;;;;;;6.53;2.47;;;;;;;19.76;57.57;101106.16;5053146;28;20036;-66
2021/05/12 07:14:43;;;;;;;4.38;2.00;;;;;;;19.77;57.48;101107.81;5053859;28;20123;-68
2021/05/12 07:17:09;;;;;;;5.47;2.13;;;;;;;19.78;57.44;101112.16;5058228;28;20503;-66
2021/05/12 07:19:34;;;;;;;4.60;2.00;;;;;;;19.79;57.53;101105.91;5052872;28;20013;-66
2021/05/12 07:21:59;;;;;;;5.70;2.40;;;;;;;19.78;58.05;101100.75;5053942;28;20330;-66
2021/05/12 07:24:25;;;;;;;7.22;2.67;;;;;;;19.82;57.79;101104.78;5053721;28;20029;-65
2021/05/12 07:26:51;;;;;;;6.38;2.78;;;;;;;19.81;57.70;101109.25;5053361;28;20033;-68
2021/05/12 07:29:16;;;;;;;6.80;2.47;;;;;;;19.80;57.46;101112.03;5053748;28;20033;-65
2021/05/12 07:31:44;;;;;;;8.73;2.70;;;;;;;19.81;57.19;101103.13;5053647;28;20101;-67
2021/05/12 07:34:10;;;;;;;5.38;2.50;;;;;;;19.79;57.50;101116.47;5053260;28;20028;-67
2021/05/12 07:36:39;;;;;;;6.40;2.88;;;;;;;19.73;57.35;101112.50;5053180;28;20373;-66
2021/05/12 07:39:07;;;;;;;8.75;2.70;;;;;;;19.80;56.95;101117.31;5053605;28;20091;-66
2021/05/12 07:41:35;;;;;;;6.55;2.50;;;;;;;19.80;57.04;101126.06;5052614;28;20996;-67
2021/05/12 07:44:02;;;;;;;6.43;2.70;;;;;;;19.80;56.99;101128.72;5053832;28;20554;-69
2021/05/12 07:46:27;;;;;;;8.20;3.13;;;;;;;19.80;56.91;101119.94;5053273;28;20017;-69
2021/05/12 07:48:53;;;;;;;6.03;2.78;;;;;;;19.82;56.62;101126.81;5052750;28;20021;-67
2021/05/12 07:51:18;;;;;;;7.20;2.85;;;;;;;19.80;56.89;101122.59;5053133;28;20021;-67
2021/05/12 07:53:43;;;;;;;6.28;2.67;;;;;;;19.80;56.54;101123.41;5052314;28;20380;-66
2021/05/12 07:56:14;;;;;;;8.03;2.77;;;;;;;19.82;56.01;101125.94;5052419;28;20488;-64
2021/05/12 07:58:40;;;;;;;5.95;2.53;;;;;;;19.78;56.28;101109.50;5053074;28;20753;-65
2021/05/12 08:01:30;;;;;;;5.90;2.65;;;;;;;19.80;55.79;101118.13;5052911;28;20064;-65
2021/05/12 08:03:51;;;;;;;7.05;2.90;;;;;;;19.80;56.05;101115.50;5052781;28;20040;-64
2021/05/12 08:06:19;;;;;;;5.90;2.85;;;;;;;19.79;55.89;101115.63;5052834;28;20091;-65
2021/05/12 08:08:44;;;;;;;6.05;2.83;;;;;;;19.78;55.55;101111.31;5052078;28;20039;-64
2021/05/12 08:11:09;;;;;;;4.53;2.33;;;;;;;19.77;55.67;101112.28;5052996;28;20029;-65
2021/05/12 08:13:36;;;;;;;7.05;2.80;;;;;;;19.80;55.62;101119.94;5052772;28;20392;-66
2021/05/12 08:16:06;;;;;;;5.85;2.33;;;;;;;19.83;55.41;101111.75;5053469;28;20023;-68
2021/05/12 08:18:32;;;;;;;5.78;2.30;;;;;;;19.83;55.41;101107.31;5054056;28;20107;-68
2021/05/12 08:20:57;;;;;;;5.93;2.67;;;;;;;19.86;55.69;101106.22;5054976;28;20476;-66
2021/05/12 08:23:24;;;;;;;6.55;2.30;;;;;;;19.87;55.37;101111.38;5055492;28;20025;-67
2021/05/12 08:25:50;;;;;;;4.95;2.30;;;;;;;19.90;55.35;101108.47;5053845;28;20102;-68
2021/05/12 08:28:16;;;;;;;6.82;2.50;;;;;;;19.90;55.18;101104.97;5073991;27;62132;-64
2021/05/12 08:30:47;;;;;;;8.05;2.72;;;;;;;19.89;55.38;101114.72;5072117;28;20025;-63
2021/05/12 08:33:16;;;;;;;5.88;2.42;;;;;;;19.89;55.21;101106.78;5072408;28;20028;-63
2021/05/12 08:35:46;;;;;;;7.05;2.50;;;;;;;19.88;55.30;101105.09;5072885;28;20099;-66
2021/05/12 08:38:17;;;;;;;6.40;2.30;;;;;;;19.93;55.42;101110.84;5072250;28;20055;-65
2021/05/12 08:40:44;;;;;;;4.85;2.15;;;;;;;19.96;55.21;101108.91;5073264;28;20020;-67
2021/05/12 08:43:11;;;;;;;7.07;2.30;;;;;;;19.98;55.33;101112.25;5073083;28;20031;-67
2021/05/12 08:45:38;;;;;;;7.20;2.42;;;;;;;20.01;55.02;101107.56;5072098;28;20029;-67
2021/05/12 08:48:10;;;;;;;6.40;2.17;;;;;;;20.04;55.18;101103.81;5072752;28;20341;-66
2021/05/12 08:50:35;;;;;;;5.80;2.30;;;;;;;20.02;55.19;101098.63;5073998;28;20028;-67
2021/05/12 08:53:04;;;;;;;6.47;2.47;;;;;;;20.05;55.25;101100.19;5072564;28;20526;-66
2021/05/12 08:55:31;;;;;;;5.70;2.13;;;;;;;20.07;55.23;101107.00;5072295;28;20025;-67
2021/05/12 08:58:00;;;;;;;4.60;1.98;;;;;;;20.07;54.96;101099.09;5072467;28;20024;-68
2021/05/12 09:00:26;;;;;;;5.35;1.90;;;;;;;20.06;55.30;101094.78;5071762;28;20120;-69
2021/05/12 09:02:52;;;;;;;6.35;2.20;;;;;;;20.10;54.85;101104.13;5072549;28;20143;-69
2021/05/12 09:05:19;;;;;;;5.18;2.17;;;;;;;20.13;54.65;101099.53;5071608;28;20402;-64
2021/05/12 09:07:46;;;;;;;5.50;2.20;;;;;;;20.11;54.61;101094.38;5072496;28;20111;-64
2021/05/12 09:10:11;;;;;;;6.70;2.00;;;;;;;20.13;54.72;101091.59;5072161;28;20085;-67
2021/05/12 09:12:43;;;;;;;7.60;2.42;;;;;;;20.14;54.11;101094.13;5070841;28;20024;-69
2021/05/12 09:15:12;;;;;;;6.50;2.15;;;;;;;20.13;54.36;101089.78;5071896;28;20024;-66
2021/05/12 09:17:39;;;;;;;7.50;1.90;;;;;;;20.15;54.37;101097.59;5071649;28;20051;-67
2021/05/12 09:20:30;;;;;;;5.03;1.98;;;;;;;20.14;54.38;101099.41;5071692;28;20035;-65
2021/05/12 09:23:01;;;;;;;4.53;1.70;;;;;;;20.13;54.40;101097.72;5072284;28;20384;-66
2021/05/12 09:25:32;;;;;;;7.35;1.85;;;;;;;20.13;54.21;101099.53;5071426;28;20032;-65
2021/05/12 09:28:30;;;;;;;4.55;1.60;;;;;;;20.14;54.27;101091.47;5071850;28;20024;-68
2021/05/12 09:31:07;;;;;;;5.53;1.90;;;;;;;20.17;53.78;101088.56;5048705;28;20047;-68
2021/05/12 09:33:37;;;;;;;5.47;1.65;;;;;;;20.16;54.01;101094.81;5070719;28;20032;-69
2021/05/12 09:36:03;;;;;;;4.25;1.70;;;;;;;20.15;53.72;101090.50;5071667;28;20493;-68
2021/05/12 09:38:30;;;;;;;3.58;1.67;;;;;;;20.17;53.70;101085.06;5071213;28;20044;-66
2021/05/12 09:41:09;;;;;;;4.15;1.33;;;;;;;20.17;53.67;101093.00;5070944;28;20078;-68
2021/05/12 09:43:35;;;;;;;4.95;1.70;;;;;;;20.16;54.08;101092.19;5073343;28;20078;-66
2021/05/12 09:46:29;;;;;;;5.05;2.05;;;;;;;20.14;53.88;101095.91;5075856;28;20103;-65
2021/05/12 09:49:00;;;;;;;4.78;1.75;;;;;;;20.12;53.83;101090.75;5074998;28;20451;-65
2021/05/12 09:51:33;;;;;;;5.57;1.90;;;;;;;20.12;53.97;101098.69;5075581;28;20036;-66
2021/05/12 09:54:08;;;;;;;4.55;1.80;;;;;;;20.09;53.50;101099.81;5090518;28;20432;-66
2021/05/12 09:56:51;;;;;;;4.65;1.55;;;;;;;20.08;53.64;101098.13;5075077;28;20068;-66
2021/05/12 09:59:25;;;;;;;4.00;1.42;;;;;;;20.07;53.64;101090.31;5075169;28;20534;-68
2021/05/12 10:01:54;;;;;;;5.25;1.63;;;;;;;20.08;53.52;101100.75;5074862;28;20329;-67
2021/05/12 10:04:39;;;;;;;5.60;1.58;;;;;;;20.10;53.39;101092.69;5075116;28;20460;-64
2021/05/12 10:07:23;;;;;;;6.05;1.67;;;;;;;20.15;53.37;101093.13;5075448;28;20036;-66
2021/05/12 10:09:53;;;;;;;4.70;1.20;;;;;;;20.17;53.25;101087.72;5074838;28;20044;-67
2021/05/12 10:12:22;;;;;;;3.85;1.77;;;;;;;20.16;53.41;101083.41;5075195;28;20031;-67
2021/05/12 10:14:52;;;;;;;5.25;1.70;;;;;;;20.19;52.96;101094.56;5074714;28;20572;-67
2021/05/12 10:17:19;;;;;;;6.05;1.50;;;;;;;20.17;53.18;101083.28;5075005;28;20470;-67
2021/05/12 10:19:47;;;;;;;3.30;1.30;;;;;;;20.20;52.83;101079.50;5075050;28;20531;-67
2021/05/12 10:22:16;;;;;;;3.53;1.35;;;;;;;20.22;52.88;101083.72;5074214;28;20472;-66
2021/05/12 10:24:44;;;;;;;6.35;1.40;;;;;;;20.19;52.93;101075.22;5075305;28;20238;-66
2021/05/12 10:27:15;;;;;;;3.85;1.42;;;;;;;20.22;52.85;101075.78;5075140;28;20020;-65
2021/05/12 10:29:45;;;;;;;4.35;1.45;;;;;;;20.23;52.94;101079.25;5074621;28;20070;-62
2021/05/12 10:32:36;;;;;;;6.07;1.70;;;;;;;20.17;53.33;101056.81;5074823;28;20024;-67
2021/05/12 10:35:08;;;;;;;7.10;1.80;;;;;;;20.24;53.14;101079.13;5075177;28;20033;-68
2021/05/12 10:37:38;;;;;;;5.25;1.40;;;;;;;20.26;53.18;101081.63;5074336;28;20447;-67
2021/05/12 10:40:06;;;;;;;4.63;1.58;;;;;;;20.26;53.46;101068.41;5075503;28;20094;-67
2021/05/12 10:45:49;;;;;;;5.65;1.45;;;;;;;20.26;53.31;101063.94;5074472;28;20062;-65
2021/05/12 10:48:39;;;;;;;6.10;1.30;;;;;;;20.32;53.41;101061.75;5075333;28;20437;-66
2021/05/12 10:51:19;;;;;;;5.90;1.80;;;;;;;20.32;53.15;101053.81;5074091;28;20029;-63
2021/05/12 10:53:49;;;;;;;4.53;1.40;;;;;;;20.29;53.30;101055.72;5074217;28;20160;-64
2021/05/12 10:56:16;;;;;;;4.82;1.38;;;;;;;20.28;53.60;101054.06;5074094;28;20131;-65
2021/05/12 10:58:57;;;;;;;5.25;1.40;;;;;;;20.30;53.43;101059.22;5074063;28;20108;-65
2021/05/12 11:01:23;;;;;;;5.15;1.30;;;;;;;20.28;53.09;101053.22;5074129;28;20424;-64
2021/05/12 11:03:49;;;;;;;5.47;1.60;;;;;;;20.25;52.90;101059.63;5074302;28;20028;-65
2021/05/12 11:06:44;;;;;;;5.97;1.50;;;;;;;20.24;52.58;101059.75;5073354;28;20353;-64
2021/05/12 11:09:13;;;;;;;2.92;1.30;;;;;;;20.21;53.01;101052.91;5063633;28;20430;-65
2021/05/12 11:11:39;;;;;;;3.97;1.38;;;;;;;20.21;53.08;101057.38;5073390;28;20033;-66
2021/05/12 11:14:28;;;;;;;6.18;1.60;;;;;;;20.19;52.86;101051.41;5074315;28;20040;-62
2021/05/12 11:17:07;;;;;;;5.72;2.00;;;;;;;20.17;53.05;101066.53;5074429;28;20085;-63
2021/05/12 11:19:46;;;;;;;6.05;1.40;;;;;;;20.15;52.75;101060.56;5073532;28;20620;-63
2021/05/12 11:25:12;;;;;;;;;;;;;;;20.13;52.85;101058.03;5074299;28;20154;-64
2021/05/12 11:33:38;;;;;;;5.00;1.40;;;;;;;20.20;53.36;101051.25;5073162;28;20043;-63
2021/05/12 11:36:17;;;;;;;4.22;1.50;;;;;;;20.21;53.54;101046.78;5074149;28;20021;-63
2021/05/12 11:38:43;;;;;;;5.68;1.55;;;;;;;20.20;53.79;101042.47;5074153;28;20025;-63
2021/05/12 11:41:10;;;;;;;5.00;1.40;;;;;;;20.19;53.38;101044.28;5073005;28;20057;-63